Time;durP1;ratioP1;P1;durP2;ratioP2;P2;SDS_P1;SDS_P2;PMS_P1;PMS_P2;Temp;Humidity;BMP_temperature;BMP_pressure;BME280_temperature;BME280_humidity;BME280_pressure;Samples;Min_cycle;Max_cycle;Signal;HPM_P1;HPM_P2
2021/12/17 00:01:09;;;;;;;97.18;29.40;;;8.60;99.90;;;;;;5034566;28;20425;-66
2021/12/17 00:03:43;;;;;;;70.57;26.15;;;8.60;99.90;;;;;;5027849;28;20049;-67
2021/12/17 00:08:39;;;;;;;87.80;27.35;;;8.60;99.90;;;;;;5018048;28;20057;-66
2021/12/17 00:11:06;;;;;;;101.20;28.65;;;8.60;99.90;;;;;;5018103;28;20450;-67
2021/12/17 00:13:33;;;;;;;87.03;28.23;;;8.70;99.90;;;;;;5017976;28;20041;-66
2021/12/17 00:15:59;;;;;;;133.23;30.85;;;8.60;99.90;;;;;;5000554;28;20060;-68
2021/12/17 00:18:33;;;;;;;105.28;29.27;;;8.60;99.90;;;;;;5000225;28;20042;-69
2021/12/17 00:53:39;;;;;;;107.20;31.58;;;8.60;99.90;;;;;;5019224;28;20076;-67
2021/12/17 00:56:04;;;;;;;114.72;31.30;;;8.60;99.90;;;;;;5020231;28;20056;-68
2021/12/17 00:58:30;;;;;;;92.07;28.98;;;8.70;99.90;;;;;;5032264;28;20133;-68
2021/12/17 01:00:56;;;;;;;134.82;31.45;;;8.70;99.90;;;;;;5017742;28;20121;-65
2021/12/17 01:03:21;;;;;;;111.53;30.20;;;8.60;99.90;;;;;;4999737;28;20480;-68
2021/12/17 01:05:47;;;;;;;121.65;31.83;;;8.60;99.90;;;;;;4999503;28;20469;-67
2021/12/17 01:08:12;;;;;;;91.65;28.90;;;8.60;99.90;;;;;;4999469;28;20053;-67
2021/12/17 01:10:47;;;;;;;82.15;27.38;;;8.60;99.90;;;;;;4999426;28;20052;-68
2021/12/17 01:13:15;;;;;;;115.03;29.02;;;8.60;99.90;;;;;;4991014;28;20045;-65
2021/12/17 01:15:42;;;;;;;74.80;27.10;;;8.70;99.90;;;;;;5036296;28;20366;-67
2021/12/17 01:18:13;;;;;;;100.68;28.25;;;8.60;99.90;;;;;;5018437;28;20107;-67
2021/12/17 01:23:41;;;;;;;86.13;24.88;;;8.60;99.90;;;;;;5036143;28;20478;-67
2021/12/17 01:36:39;;;;;;;59.78;21.70;;;8.60;99.90;;;;;;5036077;28;20058;-67
2021/12/17 01:44:19;;;;;;;56.20;20.77;;;8.60;99.90;;;;;;5018430;28;20434;-67
2021/12/17 01:46:50;;;;;;;70.90;21.50;;;8.60;99.90;;;;;;5018510;28;20053;-67
2021/12/17 02:00:34;;;;;;;46.95;18.13;;;8.60;99.90;;;;;;4984472;28;20418;-67
2021/12/17 02:03:00;;;;;;;57.72;18.55;;;8.60;99.90;;;;;;4999351;28;20068;-68
2021/12/17 02:05:26;;;;;;;42.28;17.58;;;8.60;99.90;;;;;;4998650;28;20069;-66
2021/12/17 02:07:55;;;;;;;51.03;17.88;;;8.60;99.90;;;;;;4998952;28;20078;-68
2021/12/17 02:31:33;;;;;;;40.47;15.45;;;8.40;99.90;;;;;;5035106;28;20140;-67
2021/12/17 02:34:30;;;;;;;35.55;14.10;;;8.40;99.90;;;;;;5035052;28;20397;-67
2021/12/17 02:37:02;;;;;;;37.17;14.50;;;8.40;99.90;;;;;;5035120;28;20052;-67
2021/12/17 02:47:34;;;;;;;31.65;14.35;;;8.20;99.90;;;;;;5035154;28;20057;-67
2021/12/17 02:50:03;;;;;;;39.42;14.75;;;8.30;99.90;;;;;;5017132;28;20115;-68
2021/12/17 02:52:31;;;;;;;42.55;16.02;;;8.40;99.90;;;;;;5035086;28;20136;-66
2021/12/17 02:54:58;;;;;;;42.00;14.82;;;8.30;99.90;;;;;;5017500;28;20063;-66
2021/12/17 02:57:25;;;;;;;36.63;13.77;;;8.30;99.90;;;;;;5035176;28;20053;-67
2021/12/17 02:59:52;;;;;;;34.00;13.07;;;8.30;99.90;;;;;;5017860;28;20125;-67
2021/12/17 03:02:22;;;;;;;24.27;11.00;;;8.30;99.90;;;;;;5014679;28;20096;-67
2021/12/17 03:04:47;;;;;;;34.83;12.30;;;8.30;99.90;;;;;;5015205;28;20050;-67
2021/12/17 03:07:14;;;;;;;33.08;13.05;;;8.30;99.90;;;;;;5015090;28;20123;-67
2021/12/17 03:12:33;;;;;;;28.67;10.73;;;8.30;99.90;;;;;;5015381;28;20076;-69
2021/12/17 03:15:21;;;;;;;26.02;11.02;;;8.20;99.90;;;;;;5015160;28;20496;-66
2021/12/17 03:18:27;;;;;;;40.42;12.18;;;8.70;99.90;;;;;;5015150;28;20121;-66
2021/12/17 03:23:41;;;;;;;31.17;11.57;;;8.30;99.90;;;;;;5014930;28;20054;-68
2021/12/17 03:26:18;;;;;;;21.02;10.30;;;8.30;99.90;;;;;;5015065;28;20363;-67
2021/12/17 03:28:47;;;;;;;23.83;9.85;;;8.30;99.90;;;;;;5021454;28;20084;-67
2021/12/17 03:31:14;;;;;;;33.40;11.57;;;8.30;99.90;;;;;;5017771;28;20071;-66
2021/12/17 03:33:43;;;;;;;30.48;11.32;;;8.30;99.90;;;;;;5034598;28;20084;-69
2021/12/17 03:36:14;;;;;;;28.20;10.48;;;8.30;99.90;;;;;;5016937;28;20077;-68
2021/12/17 03:38:42;;;;;;;28.30;11.77;;;8.30;99.90;;;;;;5034462;28;20045;-67
2021/12/17 03:41:17;;;;;;;26.63;10.82;;;8.30;99.90;;;;;;5035483;28;20140;-67
2021/12/17 03:43:43;;;;;;;23.90;10.43;;;8.30;99.90;;;;;;5038571;28;20092;-68
2021/12/17 03:46:09;;;;;;;28.40;11.48;;;8.30;99.90;;;;;;5038421;28;20084;-67
2021/12/17 03:48:37;;;;;;;42.03;13.30;;;8.30;99.90;;;;;;5021167;28;20068;-67
2021/12/17 03:51:05;;;;;;;33.50;12.50;;;8.30;99.90;;;;;;5038135;28;20083;-67
2021/12/17 03:53:31;;;;;;;31.67;11.30;;;8.30;99.90;;;;;;5021390;28;20458;-67
2021/12/17 03:55:57;;;;;;;30.58;12.32;;;8.30;99.90;;;;;;5004465;28;20042;-66
2021/12/17 03:58:23;;;;;;;23.80;10.93;;;8.30;99.90;;;;;;5030959;28;20069;-67
2021/12/17 04:00:49;;;;;;;38.55;13.25;;;8.30;99.90;;;;;;5001235;28;20049;-68
2021/12/17 04:03:14;;;;;;;29.50;11.80;;;8.30;99.90;;;;;;5000823;28;20053;-67
2021/12/17 04:05:41;;;;;;;37.10;12.13;;;8.20;99.90;;;;;;5000914;28;20046;-69
2021/12/17 04:08:07;;;;;;;23.55;11.02;;;8.20;99.90;;;;;;5018720;28;20382;-66
2021/12/17 04:10:40;;;;;;;25.77;10.68;;;8.10;99.90;;;;;;5000550;28;20048;-68
2021/12/17 04:16:08;;;;;;;30.23;11.02;;;8.10;99.90;;;;;;4975916;28;19987;-69
2021/12/17 04:18:40;;;;;;;37.15;11.63;;;8.10;99.90;;;;;;5017769;28;20172;-67
2021/12/17 04:21:13;;;;;;;46.47;13.55;;;8.00;99.90;;;;;;5017870;28;20084;-67
2021/12/17 04:23:40;;;;;;;30.77;11.73;;;8.00;99.90;;;;;;5018159;28;20061;-67
2021/12/17 04:26:05;;;;;;;29.10;11.60;;;8.10;99.90;;;;;;5007455;28;20120;-68
2021/12/17 04:28:31;;;;;;;31.13;11.90;;;8.10;99.90;;;;;;5011917;28;20485;-67
2021/12/17 04:30:56;;;;;;;26.77;12.02;;;8.10;99.90;;;;;;5000762;28;20045;-67
2021/12/17 04:33:22;;;;;;;27.95;11.18;;;8.10;99.90;;;;;;5017854;28;20042;-68
2021/12/17 04:35:47;;;;;;;30.63;11.60;;;8.10;99.90;;;;;;5017812;28;20045;-67
2021/12/17 04:38:15;;;;;;;30.83;11.25;;;8.10;99.90;;;;;;5000701;28;20366;-69
2021/12/17 04:40:43;;;;;;;32.30;11.60;;;8.10;99.90;;;;;;5017793;28;20042;-67
2021/12/17 04:45:41;;;;;;;38.90;12.93;;;8.10;99.90;;;;;;5000553;28;20153;-68
2021/12/17 04:59:05;;;;;;;24.23;10.38;;;8.20;99.90;;;;;;5013232;28;20057;-67
2021/12/17 05:01:30;;;;;;;23.90;10.05;;;8.10;99.90;;;;;;5037075;28;20057;-67
2021/12/17 05:03:56;;;;;;;21.42;9.27;;;8.10;99.90;;;;;;5036768;28;20042;-68
2021/12/17 05:06:28;;;;;;;24.55;10.15;;;8.10;99.90;;;;;;5036756;28;20424;-67
2021/12/17 05:08:58;;;;;;;26.67;10.23;;;8.10;99.90;;;;;;5017330;28;20076;-67
2021/12/17 05:19:47;;;;;;;22.67;9.63;;;8.10;99.90;;;;;;5036460;28;20112;-66
2021/12/17 05:22:14;;;;;;;20.77;8.63;;;8.10;99.90;;;;;;5025028;28;20057;-68
2021/12/17 05:24:39;;;;;;;27.35;10.15;;;8.10;99.90;;;;;;5018802;28;20061;-68
2021/12/17 05:27:06;;;;;;;22.92;9.90;;;8.20;99.90;;;;;;5018915;28;20344;-68
2021/12/17 05:29:32;;;;;;;23.73;10.15;;;8.20;99.90;;;;;;5019326;28;20381;-67
2021/12/17 05:31:58;;;;;;;22.77;10.00;;;8.10;99.90;;;;;;5036478;28;20071;-66
2021/12/17 05:34:23;;;;;;;18.75;9.52;;;8.10;99.90;;;;;;5036068;28;20433;-66
2021/12/17 05:36:49;;;;;;;25.92;9.32;;;8.10;99.90;;;;;;5036332;28;20049;-66
2021/12/17 05:39:15;;;;;;;31.33;10.90;;;8.10;99.90;;;;;;5016357;28;20044;-68
2021/12/17 05:41:40;;;;;;;28.58;10.93;;;8.20;99.90;;;;;;5035663;28;20111;-68
2021/12/17 05:44:06;;;;;;;30.08;11.82;;;8.10;99.90;;;;;;5017118;28;20124;-69
2021/12/17 05:47:05;;;;;;;30.95;11.25;;;8.10;99.90;;;;;;5016485;28;20063;-68
2021/12/17 05:49:26;;;;;;;34.35;12.77;;;8.10;99.90;;;;;;4993921;28;20470;-68
2021/12/17 05:51:53;;;;;;;22.55;11.18;;;8.20;99.90;;;;;;5014110;28;20052;-69
2021/12/17 05:54:20;;;;;;;42.30;12.65;;;8.10;99.90;;;;;;4998743;28;20371;-69
2021/12/17 05:56:45;;;;;;;29.15;12.13;;;8.10;99.90;;;;;;5000804;28;20457;-67
2021/12/17 05:59:11;;;;;;;36.35;12.32;;;8.10;99.90;;;;;;5017517;28;20053;-68
2021/12/17 06:01:37;;;;;;;24.23;11.18;;;8.10;99.90;;;;;;5017317;28;20069;-70
2021/12/17 06:04:05;;;;;;;25.90;11.77;;;8.10;99.90;;;;;;5034373;28;20049;-67
2021/12/17 06:06:35;;;;;;;32.08;13.10;;;8.10;99.90;;;;;;5034168;28;20064;-69
2021/12/17 06:09:07;;;;;;;23.27;11.40;;;8.10;99.90;;;;;;5015208;28;20045;-67
2021/12/17 06:11:34;;;;;;;35.15;12.77;;;8.40;99.90;;;;;;5034349;28;20400;-68
2021/12/17 06:13:59;;;;;;;23.27;11.70;;;8.10;99.90;;;;;;5016160;28;20041;-68
2021/12/17 06:16:27;;;;;;;35.03;13.68;;;8.10;99.90;;;;;;5034263;28;20343;-67
2021/12/17 06:18:53;;;;;;;30.23;12.98;;;8.10;99.90;;;;;;5017147;28;20053;-68
2021/12/17 06:21:19;;;;;;;26.08;12.43;;;8.10;99.90;;;;;;5034111;28;20132;-66
2021/12/17 06:23:44;;;;;;;28.88;13.13;;;8.10;99.90;;;;;;5016598;28;20049;-68
2021/12/17 06:26:12;;;;;;;29.27;13.45;;;8.10;99.90;;;;;;5000825;28;20045;-68
2021/12/17 06:28:38;;;;;;;33.55;13.25;;;8.10;99.90;;;;;;5034384;28;20074;-67
2021/12/17 06:31:03;;;;;;;33.13;13.45;;;8.10;99.90;;;;;;5034466;28;20052;-67
2021/12/17 06:33:29;;;;;;;35.88;13.15;;;8.10;99.90;;;;;;4998122;28;20363;-66
2021/12/17 06:35:54;;;;;;;33.60;13.38;;;8.10;99.90;;;;;;5017278;28;20041;-66
2021/12/17 06:38:20;;;;;;;28.83;12.88;;;8.00;99.90;;;;;;5034440;28;20110;-67
2021/12/17 06:40:48;;;;;;;30.98;12.23;;;8.10;99.90;;;;;;5017502;28;20045;-66
2021/12/17 06:43:15;;;;;;;28.58;12.02;;;8.00;99.90;;;;;;5028116;28;20049;-67
2021/12/17 06:45:54;;;;;;;25.88;12.57;;;8.00;99.90;;;;;;5015354;28;20091;-68
2021/12/17 06:48:24;;;;;;;34.42;13.15;;;8.00;99.90;;;;;;4997171;28;20090;-67
2021/12/17 06:57:19;;;;;;;25.52;12.30;;;8.00;99.90;;;;;;5015192;28;20050;-65
2021/12/17 06:59:47;;;;;;;33.92;12.88;;;8.00;99.90;;;;;;5029878;28;20084;-67
2021/12/17 07:10:42;;;;;;;33.83;14.05;;;8.00;99.90;;;;;;5034090;28;20473;-68
2021/12/17 07:39:54;;;;;;;34.80;15.20;;;8.00;99.90;;;;;;5018087;28;20060;-66
2021/12/17 07:42:19;;;;;;;34.90;14.63;;;8.00;99.90;;;;;;5000403;28;20041;-68
2021/12/17 07:44:45;;;;;;;42.03;16.38;;;8.00;99.90;;;;;;5019024;28;20056;-68
2021/12/17 07:47:11;;;;;;;32.83;14.18;;;8.00;99.90;;;;;;5037333;28;20513;-66
2021/12/17 07:49:37;;;;;;;51.58;16.67;;;8.00;99.90;;;;;;5019684;28;20386;-67
2021/12/17 07:52:03;;;;;;;34.20;15.00;;;8.00;99.90;;;;;;5018390;28;20057;-68
2021/12/17 07:54:31;;;;;;;33.00;14.40;;;8.00;99.90;;;;;;5036088;28;20045;-67
2021/12/17 07:56:57;;;;;;;46.22;16.73;;;8.00;99.90;;;;;;5020116;28;20067;-67
2021/12/17 07:59:23;;;;;;;44.92;16.92;;;8.10;99.90;;;;;;5020232;28;20111;-68
2021/12/17 08:01:48;;;;;;;45.35;17.33;;;8.10;99.90;;;;;;5020167;28;20128;-68
2021/12/17 08:04:14;;;;;;;35.05;15.60;;;8.10;99.90;;;;;;5020643;28;20140;-66
2021/12/17 08:06:40;;;;;;;33.88;15.55;;;8.10;99.90;;;;;;5020543;28;20366;-66
2021/12/17 08:09:06;;;;;;;40.97;16.55;;;8.10;99.90;;;;;;5020493;28;20046;-67
2021/12/17 08:11:38;;;;;;;38.03;16.85;;;8.10;99.90;;;;;;5037909;28;20052;-67
2021/12/17 08:14:07;;;;;;;42.03;16.73;;;8.10;99.90;;;;;;5004456;28;20054;-68
2021/12/17 08:16:41;;;;;;;44.95;16.92;;;8.20;99.90;;;;;;5000729;28;20045;-66
2021/12/17 08:27:27;;;;;;;;;;;8.20;99.90;;;;;;5000423;28;20522;-68
2021/12/17 08:30:07;;;;;;;35.67;15.68;;;8.20;99.90;;;;;;5017214;28;19929;-68
2021/12/17 08:32:33;;;;;;;41.63;16.23;;;8.20;99.90;;;;;;5016971;28;20124;-68
2021/12/17 08:34:58;;;;;;;44.38;16.50;;;8.30;99.90;;;;;;5016635;28;20141;-68
2021/12/17 08:37:24;;;;;;;40.55;16.25;;;8.30;99.90;;;;;;5017006;28;20052;-67
2021/12/17 08:39:49;;;;;;;37.08;15.23;;;8.30;99.90;;;;;;5016975;28;20082;-68
2021/12/17 08:42:15;;;;;;;43.78;17.35;;;8.30;99.90;;;;;;5017884;28;20064;-69
2021/12/17 08:44:40;;;;;;;44.15;17.30;;;8.30;99.90;;;;;;5032615;28;20041;-66
2021/12/17 08:47:06;;;;;;;35.05;15.32;;;8.40;99.90;;;;;;5019088;28;20052;-67
2021/12/17 08:49:32;;;;;;;38.67;16.10;;;8.40;99.90;;;;;;5036619;28;20075;-68
2021/12/17 08:51:58;;;;;;;39.58;17.42;;;8.40;99.90;;;;;;5018658;28;20037;-68
2021/12/17 08:54:24;;;;;;;35.75;16.38;;;8.40;99.90;;;;;;5017413;28;20059;-67
2021/12/17 08:56:50;;;;;;;40.42;16.50;;;8.50;99.90;;;;;;5001949;28;20041;-68
2021/12/17 08:59:17;;;;;;;33.30;16.60;;;8.50;99.90;;;;;;5035888;28;20037;-69
2021/12/17 09:01:46;;;;;;;36.90;16.15;;;8.50;99.90;;;;;;5018945;28;20080;-69
2021/12/17 09:04:13;;;;;;;39.38;16.73;;;8.60;99.90;;;;;;5018724;28;20060;-67
2021/12/17 09:06:39;;;;;;;34.28;15.93;;;8.50;99.90;;;;;;5036708;28;20041;-66
2021/12/17 09:09:05;;;;;;;40.25;15.93;;;8.70;99.90;;;;;;5019408;28;20054;-66
2021/12/17 09:11:31;;;;;;;38.28;16.27;;;8.60;99.90;;;;;;5019399;28;20056;-68
2021/12/17 09:13:59;;;;;;;29.88;14.05;;;8.70;99.90;;;;;;5004294;28;20061;-66
2021/12/17 09:16:25;;;;;;;40.42;16.33;;;8.70;99.90;;;;;;5016245;28;20458;-67
2021/12/17 09:18:53;;;;;;;36.63;14.85;;;8.70;99.90;;;;;;5016585;28;20041;-66
2021/12/17 09:21:19;;;;;;;32.65;15.85;;;8.70;99.90;;;;;;5017065;28;20422;-65
2021/12/17 09:23:45;;;;;;;32.33;16.15;;;8.80;99.90;;;;;;5015857;28;20123;-68
2021/12/17 09:26:13;;;;;;;29.90;14.48;;;8.80;99.90;;;;;;4982642;28;20049;-68
2021/12/17 09:28:38;;;;;;;30.40;15.40;;;8.80;99.90;;;;;;5015840;28;20053;-68
2021/12/17 09:31:05;;;;;;;29.70;14.98;;;8.80;99.90;;;;;;5015893;28;20524;-65
2021/12/17 09:33:32;;;;;;;33.13;14.85;;;8.80;99.90;;;;;;4982164;28;20045;-67
2021/12/17 09:36:01;;;;;;;29.30;14.52;;;8.80;99.90;;;;;;5015610;28;20092;-66
2021/12/17 09:38:28;;;;;;;35.47;15.93;;;8.80;99.90;;;;;;4997857;28;20082;-66
2021/12/17 09:40:54;;;;;;;34.38;15.10;;;8.90;99.90;;;;;;5015255;28;20103;-68
2021/12/17 09:43:20;;;;;;;29.33;15.20;;;8.90;99.90;;;;;;5006853;28;20041;-69
2021/12/17 09:45:46;;;;;;;34.53;15.98;;;8.90;99.90;;;;;;5035317;28;20508;-68
2021/12/17 09:48:14;;;;;;;27.17;15.07;;;8.90;99.90;;;;;;5035166;28;20466;-67
2021/12/17 09:50:40;;;;;;;27.48;13.60;;;8.90;99.90;;;;;;5017662;28;20351;-68
2021/12/17 09:53:05;;;;;;;30.80;14.70;;;8.90;99.90;;;;;;5017570;28;20060;-68
2021/12/17 09:55:31;;;;;;;32.22;14.70;;;8.90;99.90;;;;;;5035049;28;20045;-67
2021/12/17 09:57:57;;;;;;;34.35;15.85;;;9.00;99.90;;;;;;5017827;28;20116;-67
2021/12/17 10:00:26;;;;;;;29.40;14.65;;;9.00;99.90;;;;;;5017481;28;20050;-65
2021/12/17 10:02:52;;;;;;;29.77;15.52;;;9.00;99.90;;;;;;5034577;28;20053;-65
2021/12/17 10:05:34;;;;;;;31.63;14.35;;;9.00;99.90;;;;;;5031673;28;20053;-66
2021/12/17 10:08:13;;;;;;;29.02;13.25;;;9.00;99.90;;;;;;5015080;28;20057;-67
2021/12/17 10:10:44;;;;;;;31.70;15.48;;;9.10;99.90;;;;;;4997859;28;20450;-68
2021/12/17 10:13:23;;;;;;;26.70;14.13;;;9.20;99.90;;;;;;5015453;28;20397;-67
2021/12/17 10:15:51;;;;;;;30.67;13.95;;;9.10;99.90;;;;;;4998345;28;20056;-67
2021/12/17 10:18:18;;;;;;;27.95;14.13;;;9.20;99.90;;;;;;4998329;28;20061;-67
2021/12/17 10:20:58;;;;;;;29.85;15.18;;;9.10;99.90;;;;;;4997992;28;20061;-69
2021/12/17 10:23:27;;;;;;;25.98;14.00;;;9.10;99.90;;;;;;5015573;28;20062;-66
2021/12/17 10:25:53;;;;;;;25.75;14.02;;;9.20;99.90;;;;;;4998254;28;20057;-69
2021/12/17 10:28:21;;;;;;;28.10;13.93;;;9.20;99.90;;;;;;4997889;28;20371;-68
2021/12/17 10:30:48;;;;;;;27.33;13.07;;;9.30;99.90;;;;;;5014895;28;20068;-67
2021/12/17 10:33:24;;;;;;;25.08;13.35;;;9.30;99.90;;;;;;5015466;28;20050;-68
2021/12/17 10:35:51;;;;;;;27.40;13.40;;;9.40;99.90;;;;;;5021505;28;20045;-67
2021/12/17 10:38:23;;;;;;;29.63;14.02;;;9.40;99.90;;;;;;5034991;28;20042;-67
2021/12/17 10:41:04;;;;;;;33.42;13.95;;;9.40;99.90;;;;;;5017583;28;20085;-68
2021/12/17 10:43:45;;;;;;;27.77;12.95;;;9.50;99.90;;;;;;5034421;28;20095;-68
2021/12/17 10:46:27;;;;;;;27.25;13.60;;;9.50;99.90;;;;;;5034826;28;20059;-69
2021/12/17 10:49:12;;;;;;;29.05;12.80;;;9.50;99.90;;;;;;5034608;28;20050;-67
2021/12/17 10:54:09;;;;;;;24.55;11.32;;;9.60;99.90;;;;;;5032305;28;20063;-69
2021/12/17 10:56:42;;;;;;;23.13;11.05;;;9.60;99.90;;;;;;5033352;28;20054;-68
2021/12/17 10:59:13;;;;;;;25.00;11.60;;;9.60;99.90;;;;;;5016234;28;20367;-67
2021/12/17 11:01:44;;;;;;;21.02;11.13;;;9.60;99.90;;;;;;5033533;28;20137;-67
2021/12/17 11:04:12;;;;;;;23.67;11.20;;;9.70;99.90;;;;;;5016413;28;20366;-66
2021/12/17 11:07:02;;;;;;;20.50;11.05;;;9.60;99.90;;;;;;5016405;28;20451;-67
2021/12/17 11:09:32;;;;;;;21.75;11.38;;;9.70;99.90;;;;;;5033753;28;20045;-68
2021/12/17 11:12:01;;;;;;;23.92;10.90;;;9.70;99.90;;;;;;5033693;28;20053;-67
2021/12/17 11:14:28;;;;;;;21.70;12.73;;;9.70;99.90;;;;;;5016596;28;20053;-67
2021/12/17 11:16:54;;;;;;;21.77;12.10;;;9.70;99.90;;;;;;5016621;28;20049;-68
2021/12/17 11:19:20;;;;;;;17.85;11.05;;;9.80;99.90;;;;;;5015950;28;20570;-68
2021/12/17 11:21:45;;;;;;;20.83;11.73;;;9.80;99.90;;;;;;5015825;28;20061;-67
2021/12/17 11:24:11;;;;;;;24.23;13.07;;;9.80;99.90;;;;;;5009024;28;20070;-68
2021/12/17 11:26:36;;;;;;;23.85;11.95;;;9.80;99.90;;;;;;5016475;28;20049;-67
2021/12/17 11:29:03;;;;;;;21.58;11.35;;;9.80;99.90;;;;;;5032295;28;20038;-66
2021/12/17 11:31:31;;;;;;;20.02;11.98;;;9.80;99.90;;;;;;5016494;28;20100;-68
2021/12/17 11:34:00;;;;;;;20.63;11.68;;;9.80;99.90;;;;;;5016258;28;20187;-68
2021/12/17 11:36:28;;;;;;;26.05;14.05;;;9.80;99.90;;;;;;5034087;28;20042;-69
2021/12/17 11:39:09;;;;;;;31.33;17.98;;;9.80;99.90;;;;;;5031850;28;20179;-69
2021/12/17 11:42:06;;;;;;;22.77;13.43;;;9.80;99.90;;;;;;5034439;28;20063;-68
2021/12/17 11:44:40;;;;;;;26.33;14.02;;;9.80;99.90;;;;;;5033413;28;20469;-67
2021/12/17 11:47:11;;;;;;;19.77;11.95;;;9.80;99.90;;;;;;5034039;28;20343;-69
2021/12/17 11:49:44;;;;;;;22.15;11.15;;;9.90;99.90;;;;;;5034030;28;20064;-68
2021/12/17 11:52:09;;;;;;;16.43;9.57;;;9.90;99.90;;;;;;5016831;28;20132;-67
2021/12/17 11:54:35;;;;;;;15.25;8.77;;;9.90;99.90;;;;;;5015249;28;20447;-66
2021/12/17 11:57:14;;;;;;;15.80;9.18;;;9.90;99.90;;;;;;5010609;28;20053;-68
2021/12/17 11:59:45;;;;;;;17.70;8.85;;;9.90;99.90;;;;;;5016203;28;20195;-68
2021/12/17 12:02:17;;;;;;;23.50;14.38;;;9.90;99.90;;;;;;5034060;28;20049;-67
2021/12/17 12:04:50;;;;;;;13.30;7.65;;;9.90;99.90;;;;;;5019977;28;20045;-67
2021/12/17 12:07:20;;;;;;;14.98;8.13;;;9.90;99.90;;;;;;5020471;28;20049;-67
2021/12/17 12:09:59;;;;;;;12.10;8.13;;;9.90;99.90;;;;;;5037090;28;20088;-67
2021/12/17 12:12:33;;;;;;;12.20;7.13;;;9.90;99.90;;;;;;5020065;28;20064;-67
2021/12/17 12:15:20;;;;;;;17.33;7.72;;;9.90;99.90;;;;;;5017546;28;20081;-67
2021/12/17 12:17:58;;;;;;;12.43;7.60;;;9.90;99.90;;;;;;5039071;28;20110;-67
2021/12/17 12:20:57;;;;;;;9.95;5.68;;;9.90;99.90;;;;;;5036587;28;20061;-69
2021/12/17 12:23:32;;;;;;;7.28;5.03;;;9.90;99.90;;;;;;5019300;28;20050;-66
2021/12/17 12:26:04;;;;;;;9.63;5.38;;;9.80;99.90;;;;;;5019925;28;20389;-68
2021/12/17 12:28:45;;;;;;;6.93;4.55;;;9.80;99.90;;;;;;5036791;28;20085;-68
2021/12/17 12:31:17;;;;;;;7.63;4.80;;;9.80;99.90;;;;;;5019508;28;20053;-67
2021/12/17 12:34:04;;;;;;;7.20;4.50;;;9.80;99.90;;;;;;5019641;28;20095;-68
2021/12/17 12:36:51;;;;;;;7.78;3.78;;;9.80;99.90;;;;;;5036746;28;20053;-68
2021/12/17 12:39:35;;;;;;;8.68;4.13;;;9.80;99.90;;;;;;5036861;28;20041;-66
2021/12/17 12:42:05;;;;;;;5.65;3.78;;;9.80;99.90;;;;;;5019027;28;20113;-67
2021/12/17 12:44:40;;;;;;;5.55;3.92;;;9.90;99.90;;;;;;5019125;28;20083;-68
2021/12/17 12:47:07;;;;;;;4.88;3.33;;;9.90;99.90;;;;;;5019048;28;20041;-68
2021/12/17 12:49:59;;;;;;;8.13;3.05;;;9.90;99.90;;;;;;5036401;28;20116;-64
2021/12/17 12:52:31;;;;;;;5.90;3.20;;;9.90;99.90;;;;;;5036836;28;20081;-68
2021/12/17 12:55:11;;;;;;;8.30;3.08;;;9.90;99.90;;;;;;5018998;28;20347;-69
2021/12/17 12:57:42;;;;;;;5.07;3.17;;;9.90;99.90;;;;;;5035619;28;20060;-67
2021/12/17 13:00:13;;;;;;;4.95;2.95;;;9.90;99.90;;;;;;5018019;28;20104;-67
2021/12/17 13:02:40;;;;;;;3.92;2.88;;;9.90;99.90;;;;;;5035510;28;20064;-68
2021/12/17 13:05:07;;;;;;;5.10;3.35;;;9.90;99.90;;;;;;5035482;28;20038;-68
2021/12/17 13:07:41;;;;;;;5.93;3.25;;;9.80;99.90;;;;;;5035512;28;20049;-67
2021/12/17 13:10:32;;;;;;;7.18;3.33;;;9.80;99.90;;;;;;5018021;28;20050;-67
2021/12/17 13:13:10;;;;;;;8.57;3.53;;;9.80;99.90;;;;;;5016409;28;20053;-66
2021/12/17 13:15:44;;;;;;;6.38;3.90;;;9.80;99.90;;;;;;5015054;28;20048;-66
2021/12/17 13:24:05;;;;;;;8.73;4.88;;;9.70;99.90;;;;;;5024002;28;20049;-67
2021/12/17 13:26:31;;;;;;;28.27;20.40;;;9.70;99.90;;;;;;5034716;28;20084;-67
2021/12/17 13:29:06;;;;;;;9.15;5.88;;;9.80;99.90;;;;;;5034952;28;20430;-67
2021/12/17 13:31:39;;;;;;;12.68;5.28;;;9.80;99.90;;;;;;5017674;28;20053;-67
2021/12/17 13:34:26;;;;;;;7.75;5.10;;;9.70;99.90;;;;;;5035092;28;20112;-67
2021/12/17 13:36:56;;;;;;;8.35;5.20;;;9.70;99.90;;;;;;5017270;28;20060;-66
2021/12/17 13:39:24;;;;;;;8.55;5.68;;;9.70;99.90;;;;;;5035205;28;20057;-67
2021/12/17 13:41:49;;;;;;;7.93;5.53;;;9.70;99.90;;;;;;5017551;28;20489;-67
2021/12/17 13:44:33;;;;;;;9.77;6.38;;;9.70;99.90;;;;;;5035475;28;20057;-67
2021/12/17 13:47:20;;;;;;;9.05;5.60;;;9.70;99.90;;;;;;5035494;28;20053;-67
2021/12/17 13:49:57;;;;;;;11.77;6.30;;;9.70;99.90;;;;;;5030340;28;20072;-65
2021/12/17 13:52:27;;;;;;;10.65;6.57;;;9.70;99.90;;;;;;5017406;28;20458;-68
2021/12/17 13:54:54;;;;;;;10.45;7.53;;;9.70;99.90;;;;;;5055316;28;20049;-66
2021/12/17 13:57:23;;;;;;;14.88;10.23;;;9.70;99.90;;;;;;5055177;28;20037;-68
2021/12/17 13:59:49;;;;;;;8.93;5.65;;;9.70;99.90;;;;;;5037992;28;20072;-66
2021/12/17 14:02:18;;;;;;;8.48;5.55;;;9.60;99.90;;;;;;5026336;28;20452;-67
2021/12/17 14:05:09;;;;;;;9.43;5.70;;;9.60;99.90;;;;;;5054965;28;20041;-68
2021/12/17 14:07:36;;;;;;;6.30;4.93;;;9.60;99.90;;;;;;5055237;28;20076;-66
2021/12/17 14:10:08;;;;;;;8.60;6.15;;;9.60;99.90;;;;;;5037775;28;20207;-67
2021/12/17 14:12:39;;;;;;;18.17;13.80;;;9.50;99.90;;;;;;5035347;28;20042;-67
2021/12/17 14:15:10;;;;;;;11.63;7.30;;;9.60;99.90;;;;;;5035449;28;20352;-69
2021/12/17 14:17:46;;;;;;;7.65;5.88;;;9.60;99.90;;;;;;5035096;28;20053;-68
2021/12/17 14:20:39;;;;;;;7.93;6.15;;;9.60;99.90;;;;;;5034698;28;20132;-67
2021/12/17 14:23:14;;;;;;;11.32;6.35;;;9.60;99.90;;;;;;5032805;28;20481;-67
2021/12/17 14:25:54;;;;;;;8.80;6.38;;;9.50;99.90;;;;;;5036485;28;20446;-68
2021/12/17 14:28:23;;;;;;;10.32;6.65;;;9.60;99.90;;;;;;5036880;28;20063;-69
2021/12/17 14:30:58;;;;;;;8.30;6.10;;;9.50;99.90;;;;;;5036839;28;20052;-67
2021/12/17 14:33:33;;;;;;;7.63;5.78;;;9.50;99.90;;;;;;5036782;28;20071;-68
2021/12/17 14:36:00;;;;;;;8.68;5.93;;;9.50;99.90;;;;;;5054542;28;20081;-66
2021/12/17 14:38:45;;;;;;;8.02;6.07;;;9.60;99.90;;;;;;5037120;28;20450;-67
2021/12/17 14:41:16;;;;;;;9.00;6.30;;;9.50;99.90;;;;;;5030009;28;20041;-68
2021/12/17 14:44:11;;;;;;;10.70;6.57;;;9.50;99.90;;;;;;5033561;28;20037;-68
2021/12/17 14:46:48;;;;;;;9.63;6.97;;;9.50;99.90;;;;;;5005256;28;20065;-66
2021/12/17 15:03:03;;;;;;;8.27;6.43;;;9.50;99.90;;;;;;5016802;28;20541;-67
2021/12/17 15:05:31;;;;;;;10.80;7.00;;;9.50;99.90;;;;;;5016486;28;20131;-68
2021/12/17 15:07:58;;;;;;;11.88;7.00;;;9.50;99.90;;;;;;5034213;28;20454;-69
2021/12/17 15:10:26;;;;;;;10.40;7.25;;;9.50;99.90;;;;;;5034673;28;20042;-67
2021/12/17 15:12:57;;;;;;;20.13;15.27;;;9.50;99.90;;;;;;5034370;28;20056;-69
2021/12/17 15:15:28;;;;;;;19.45;14.00;;;9.50;99.90;;;;;;5034335;28;20045;-69
2021/12/17 15:17:56;;;;;;;11.30;7.93;;;9.50;99.90;;;;;;5000475;28;20046;-67
2021/12/17 15:20:28;;;;;;;13.93;9.45;;;9.50;99.90;;;;;;5017122;28;20041;-70
2021/12/17 15:22:54;;;;;;;12.98;11.20;;;9.50;99.90;;;;;;5034248;28;20064;-68
2021/12/17 15:25:21;;;;;;;15.35;10.88;;;9.50;99.90;;;;;;5016960;28;20374;-68
2021/12/17 15:27:48;;;;;;;16.30;11.35;;;9.50;99.90;;;;;;5045866;28;20456;-68
2021/12/17 15:30:18;;;;;;;18.15;11.27;;;9.50;99.90;;;;;;5029393;28;20052;-68
2021/12/17 15:32:44;;;;;;;15.85;11.70;;;9.50;99.90;;;;;;5011727;28;20045;-67
2021/12/17 15:35:12;;;;;;;26.67;17.40;;;9.40;99.90;;;;;;5034491;28;20088;-67
2021/12/17 15:37:39;;;;;;;23.58;15.38;;;9.40;99.90;;;;;;5035404;28;20128;-68
2021/12/17 15:40:09;;;;;;;13.50;8.70;;;9.60;99.90;;;;;;5020237;28;20057;-67
2021/12/17 15:42:35;;;;;;;13.85;9.02;;;9.40;99.90;;;;;;5037988;28;20080;-67
2021/12/17 15:45:00;;;;;;;15.82;9.55;;;9.40;99.90;;;;;;5021454;28;20041;-68
2021/12/17 15:47:26;;;;;;;13.57;8.93;;;9.40;99.90;;;;;;5038146;28;20056;-68
2021/12/17 15:49:51;;;;;;;19.58;12.38;;;9.40;99.90;;;;;;5018980;28;20143;-67
2021/12/17 15:52:17;;;;;;;14.57;9.60;;;9.40;99.90;;;;;;5038270;28;20049;-68
2021/12/17 15:54:43;;;;;;;14.43;9.27;;;9.40;99.90;;;;;;5037959;28;20055;-66
2021/12/17 15:57:09;;;;;;;13.43;9.43;;;9.40;99.90;;;;;;5038218;28;20086;-68
2021/12/17 15:59:35;;;;;;;16.77;10.02;;;9.40;99.90;;;;;;5037560;28;20132;-68
2021/12/17 16:02:03;;;;;;;16.92;10.32;;;9.40;99.90;;;;;;5037011;28;20093;-67
2021/12/17 16:04:32;;;;;;;12.00;9.10;;;9.40;99.90;;;;;;5004373;28;20064;-68
2021/12/17 16:06:59;;;;;;;13.00;9.45;;;9.40;99.90;;;;;;5020254;28;20421;-69
2021/12/17 16:10:02;;;;;;;16.02;9.85;;;9.40;99.90;;;;;;5019949;28;20117;-67
2021/12/17 16:22:44;;;;;;;18.23;11.15;;;9.30;99.90;;;;;;5034872;28;20064;-68